AAL504 KCLT-KPWM
Flight info
| Callsign | AAL504 |
|---|---|
| Flight time | 1h 58m |
| Altitude | 35000 |
| Route | BARMY5 RDU NOWAE Q87 GEARS BBOBO Q22 LLUND BDR SCOGS3 |
| Aircraft | B738/M-SDE2E3FGHIRWXY/LB1 |
Departure
| Time | 2026-04-25 00:27 |
|---|---|
| Airport | Charlotte Douglas International Airport (KCLT) |
Arrival
| Time | 2026-04-25 02:26 |
|---|---|
| Airport | Portland International Jetport (KPWM) |
| Time | Latitude | Longitude | Altitude | Speed | Heading |
|---|---|---|---|---|---|
| 2026-04-24 23:51 | 35.21900 | -80.94197 | 724 ft | 0 kts | 252° |
| 2026-04-25 00:16 | 35.21903 | -80.94187 | 725 ft | 2 kts | 252° |
| 2026-04-25 00:16 | 35.21907 | -80.94170 | 725 ft | 2 kts | 252° |
| 2026-04-25 00:16 | 35.21912 | -80.94152 | 725 ft | 2 kts | 252° |
| 2026-04-25 00:17 | 35.21917 | -80.94134 | 725 ft | 2 kts | 252° |
| 2026-04-25 00:17 | 35.21921 | -80.94116 | 726 ft | 2 kts | 252° |
| 2026-04-25 00:17 | 35.21926 | -80.94099 | 726 ft | 2 kts | 252° |
| 2026-04-25 00:17 | 35.21927 | -80.94095 | 726 ft | 0 kts | 252° |
| 2026-04-25 00:21 | 35.21927 | -80.94096 | 726 ft | 1 kts | 252° |
| 2026-04-25 00:21 | 35.21907 | -80.94114 | 726 ft | 4 kts | 188° |
| 2026-04-25 00:21 | 35.21887 | -80.94098 | 726 ft | 3 kts | 124° |
| 2026-04-25 00:21 | 35.21861 | -80.94052 | 727 ft | 7 kts | 128° |
| 2026-04-25 00:22 | 35.21831 | -80.94010 | 727 ft | 6 kts | 133° |
| 2026-04-25 00:22 | 35.21810 | -80.93961 | 728 ft | 7 kts | 86° |
| 2026-04-25 00:22 | 35.21835 | -80.93902 | 729 ft | 8 kts | 46° |
| 2026-04-25 00:22 | 35.21882 | -80.93841 | 731 ft | 9 kts | 48° |
| 2026-04-25 00:23 | 35.21923 | -80.93784 | 732 ft | 8 kts | 48° |
| 2026-04-25 00:23 | 35.21962 | -80.93732 | 733 ft | 8 kts | 44° |
| 2026-04-25 00:23 | 35.22027 | -80.93713 | 733 ft | 11 kts | 357° |
| 2026-04-25 00:23 | 35.22107 | -80.93719 | 735 ft | 11 kts | 356° |
| 2026-04-25 00:24 | 35.22198 | -80.93726 | 736 ft | 13 kts | 355° |
| 2026-04-25 00:24 | 35.22293 | -80.93735 | 736 ft | 13 kts | 355° |
| 2026-04-25 00:24 | 35.22383 | -80.93742 | 736 ft | 12 kts | 356° |
| 2026-04-25 00:24 | 35.22461 | -80.93748 | 736 ft | 5 kts | 356° |
| 2026-04-25 00:25 | 35.22492 | -80.93742 | 736 ft | 3 kts | 38° |
| 2026-04-25 00:25 | 35.22494 | -80.93740 | 736 ft | 0 kts | 41° |
| 2026-04-25 00:25 | 35.22498 | -80.93734 | 736 ft | 4 kts | 53° |
| 2026-04-25 00:25 | 35.22507 | -80.93684 | 737 ft | 5 kts | 92° |
| 2026-04-25 00:26 | 35.22500 | -80.93639 | 737 ft | 5 kts | 125° |
| 2026-04-25 00:26 | 35.22446 | -80.93617 | 737 ft | 14 kts | 175° |
| 2026-04-25 00:26 | 35.22161 | -80.93591 | 737 ft | 77 kts | 175° |
| 2026-04-25 00:26 | 35.21369 | -80.93523 | 728 ft | 145 kts | 175° |
| 2026-04-25 00:27 | 35.20220 | -80.93430 | 971 ft | 177 kts | 178° |
| 2026-04-25 00:27 | 35.19028 | -80.93295 | 1790 ft | 176 kts | 172° |
| 2026-04-25 00:27 | 35.17884 | -80.92717 | 2499 ft | 183 kts | 149° |
| 2026-04-25 00:27 | 35.16927 | -80.91614 | 2921 ft | 198 kts | 132° |
| 2026-04-25 00:28 | 35.16117 | -80.90253 | 3530 ft | 200 kts | 124° |
| 2026-04-25 00:28 | 35.15466 | -80.88834 | 4305 ft | 190 kts | 117° |
| 2026-04-25 00:28 | 35.14917 | -80.87332 | 4734 ft | 201 kts | 112° |
| 2026-04-25 00:28 | 35.14434 | -80.85722 | 5293 ft | 203 kts | 109° |
| 2026-04-25 00:29 | 35.14152 | -80.84010 | 5644 ft | 218 kts | 83° |
| 2026-04-25 00:29 | 35.14707 | -80.82277 | 6107 ft | 222 kts | 57° |
| 2026-04-25 00:29 | 35.15429 | -80.80633 | 6681 ft | 226 kts | 65° |
| 2026-04-25 00:29 | 35.16081 | -80.78736 | 6809 ft | 257 kts | 68° |
| 2026-04-25 00:30 | 35.16666 | -80.76617 | 7344 ft | 270 kts | 74° |
| 2026-04-25 00:30 | 35.17133 | -80.74363 | 7880 ft | 283 kts | 77° |
| 2026-04-25 00:30 | 35.17582 | -80.71966 | 8528 ft | 292 kts | 77° |
| 2026-04-25 00:30 | 35.18041 | -80.69558 | 9326 ft | 296 kts | 77° |
| 2026-04-25 00:31 | 35.18521 | -80.67120 | 10176 ft | 297 kts | 76° |
| 2026-04-25 00:31 | 35.19017 | -80.64648 | 10766 ft | 310 kts | 75° |
| 2026-04-25 00:31 | 35.19546 | -80.62061 | 11313 ft | 323 kts | 75° |
| 2026-04-25 00:31 | 35.20105 | -80.59347 | 11888 ft | 336 kts | 75° |
| 2026-04-25 00:32 | 35.20673 | -80.56571 | 12686 ft | 341 kts | 75° |
| 2026-04-25 00:32 | 35.21247 | -80.53757 | 13473 ft | 345 kts | 74° |
| 2026-04-25 00:32 | 35.21825 | -80.50897 | 14299 ft | 349 kts | 74° |
| 2026-04-25 00:32 | 35.22403 | -80.48025 | 15188 ft | 354 kts | 74° |
| 2026-04-25 00:33 | 35.22989 | -80.45104 | 15958 ft | 358 kts | 73° |
| 2026-04-25 00:33 | 35.23581 | -80.42145 | 16710 ft | 361 kts | 73° |
| 2026-04-25 00:33 | 35.24178 | -80.39155 | 17405 ft | 366 kts | 73° |
| 2026-04-25 00:33 | 35.24783 | -80.36136 | 18106 ft | 371 kts | 73° |
| 2026-04-25 00:34 | 35.25404 | -80.33038 | 18780 ft | 375 kts | 73° |
| 2026-04-25 00:34 | 35.26023 | -80.29948 | 19438 ft | 379 kts | 73° |
| 2026-04-25 00:34 | 35.26651 | -80.26811 | 20052 ft | 384 kts | 73° |
| 2026-04-25 00:34 | 35.27283 | -80.23651 | 20689 ft | 388 kts | 73° |
| 2026-04-25 00:35 | 35.27931 | -80.20408 | 21323 ft | 391 kts | 73° |
| 2026-04-25 00:35 | 35.28573 | -80.17180 | 21904 ft | 395 kts | 73° |
| 2026-04-25 00:35 | 35.29223 | -80.13915 | 22457 ft | 399 kts | 74° |
| 2026-04-25 00:35 | 35.29886 | -80.10598 | 23021 ft | 403 kts | 73° |
| 2026-04-25 00:36 | 35.30650 | -80.07332 | 23549 ft | 407 kts | 70° |
| 2026-04-25 00:36 | 35.31562 | -80.04025 | 24104 ft | 410 kts | 68° |
| 2026-04-25 00:36 | 35.32526 | -80.00779 | 24685 ft | 413 kts | 67° |
| 2026-04-25 00:36 | 35.33540 | -79.97441 | 25203 ft | 417 kts | 67° |
| 2026-04-25 00:37 | 35.34547 | -79.94126 | 25711 ft | 420 kts | 67° |
| 2026-04-25 00:37 | 35.35560 | -79.90764 | 26206 ft | 424 kts | 67° |
| 2026-04-25 00:37 | 35.36568 | -79.87381 | 26678 ft | 428 kts | 68° |
| 2026-04-25 00:37 | 35.37588 | -79.83926 | 27167 ft | 431 kts | 68° |
| 2026-04-25 00:38 | 35.38601 | -79.80474 | 27635 ft | 434 kts | 68° |
| 2026-04-25 00:38 | 35.39620 | -79.76987 | 28129 ft | 437 kts | 68° |
| 2026-04-25 00:38 | 35.40639 | -79.73489 | 28530 ft | 441 kts | 68° |
| 2026-04-25 00:38 | 35.41659 | -79.69981 | 28994 ft | 443 kts | 68° |
| 2026-04-25 00:39 | 35.42702 | -79.66386 | 29424 ft | 446 kts | 68° |
| 2026-04-25 00:39 | 35.43736 | -79.62813 | 29873 ft | 449 kts | 68° |
| 2026-04-25 00:39 | 35.44772 | -79.59229 | 30244 ft | 452 kts | 68° |
| 2026-04-25 00:39 | 35.45820 | -79.55598 | 30714 ft | 453 kts | 68° |
| 2026-04-25 00:40 | 35.46878 | -79.51927 | 31116 ft | 456 kts | 68° |
| 2026-04-25 00:40 | 35.47929 | -79.48277 | 31553 ft | 458 kts | 68° |
| 2026-04-25 00:40 | 35.48991 | -79.44585 | 31889 ft | 461 kts | 68° |
| 2026-04-25 00:40 | 35.50053 | -79.40886 | 32275 ft | 463 kts | 68° |
| 2026-04-25 00:41 | 35.51113 | -79.37189 | 32709 ft | 464 kts | 68° |
| 2026-04-25 00:41 | 35.52170 | -79.33494 | 33346 ft | 460 kts | 69° |
| 2026-04-25 00:41 | 35.53231 | -79.29775 | 33929 ft | 457 kts | 68° |
| 2026-04-25 00:41 | 35.54274 | -79.26116 | 34484 ft | 454 kts | 68° |
| 2026-04-25 00:42 | 35.55297 | -79.22523 | 34879 ft | 454 kts | 68° |
| 2026-04-25 00:42 | 35.56348 | -79.18832 | 34879 ft | 455 kts | 68° |
| 2026-04-25 00:42 | 35.58542 | -79.11665 | 34881 ft | 448 kts | 63° |
| 2026-04-25 00:43 | 35.60078 | -79.08347 | 34880 ft | 445 kts | 51° |
| 2026-04-25 00:43 | 35.62069 | -79.05509 | 34881 ft | 443 kts | 43° |
| 2026-04-25 00:43 | 35.66603 | -79.00394 | 34870 ft | 442 kts | 38° |
| 2026-04-25 00:44 | 35.71287 | -78.95480 | 34866 ft | 443 kts | 38° |
| 2026-04-25 00:44 | 35.75940 | -78.90572 | 34866 ft | 442 kts | 38° |
| 2026-04-25 00:45 | 35.80563 | -78.85621 | 34865 ft | 440 kts | 38° |
| 2026-04-25 00:45 | 35.85148 | -78.80659 | 34868 ft | 441 kts | 39° |
| 2026-04-25 00:46 | 35.89749 | -78.75689 | 34867 ft | 441 kts | 38° |
| 2026-04-25 00:47 | 35.96756 | -78.68349 | 34863 ft | 441 kts | 37° |
| 2026-04-25 00:47 | 36.01448 | -78.63448 | 34864 ft | 442 kts | 38° |
| 2026-04-25 00:48 | 36.06107 | -78.58560 | 34866 ft | 440 kts | 37° |
| 2026-04-25 00:48 | 36.10758 | -78.53661 | 34868 ft | 439 kts | 37° |
| 2026-04-25 00:49 | 36.15419 | -78.48740 | 34874 ft | 441 kts | 37° |
| 2026-04-25 00:49 | 36.20041 | -78.43848 | 34877 ft | 440 kts | 37° |
| 2026-04-25 00:50 | 36.24715 | -78.38895 | 34879 ft | 441 kts | 37° |
| 2026-04-25 00:50 | 36.29361 | -78.33961 | 34877 ft | 441 kts | 38° |
| 2026-04-25 00:51 | 36.33978 | -78.29050 | 34875 ft | 439 kts | 38° |
| 2026-04-25 00:51 | 36.38621 | -78.24090 | 34877 ft | 440 kts | 38° |
| 2026-04-25 00:52 | 36.43115 | -78.18953 | 34878 ft | 441 kts | 40° |
| 2026-04-25 00:52 | 36.47545 | -78.13680 | 34876 ft | 443 kts | 41° |
| 2026-04-25 00:53 | 36.51975 | -78.08398 | 34888 ft | 442 kts | 40° |
| 2026-04-25 00:53 | 36.56425 | -78.03114 | 34883 ft | 442 kts | 40° |
| 2026-04-25 00:54 | 36.60853 | -77.97870 | 34889 ft | 441 kts | 40° |
| 2026-04-25 00:54 | 36.65275 | -77.92632 | 34885 ft | 440 kts | 40° |
| 2026-04-25 00:55 | 36.69712 | -77.87374 | 34885 ft | 441 kts | 40° |
| 2026-04-25 00:55 | 36.74130 | -77.82130 | 34882 ft | 441 kts | 40° |
| 2026-04-25 00:56 | 36.78573 | -77.76850 | 34876 ft | 442 kts | 40° |
| 2026-04-25 00:56 | 36.82999 | -77.71586 | 34875 ft | 440 kts | 39° |
| 2026-04-25 00:57 | 36.87417 | -77.66325 | 34876 ft | 440 kts | 40° |
| 2026-04-25 00:57 | 36.91849 | -77.61041 | 34870 ft | 441 kts | 39° |
| 2026-04-25 00:58 | 36.96276 | -77.55750 | 34874 ft | 440 kts | 39° |
| 2026-04-25 00:58 | 37.00674 | -77.50487 | 34880 ft | 441 kts | 40° |
| 2026-04-25 00:59 | 37.05074 | -77.45211 | 34876 ft | 439 kts | 39° |
| 2026-04-25 00:59 | 37.09644 | -77.40166 | 34878 ft | 436 kts | 31° |
| 2026-04-25 01:00 | 37.14980 | -77.36722 | 34876 ft | 427 kts | 17° |
| 2026-04-25 01:00 | 37.20577 | -77.34259 | 34881 ft | 427 kts | 15° |
| 2026-04-25 01:01 | 37.26217 | -77.31943 | 34873 ft | 427 kts | 15° |
| 2026-04-25 01:01 | 37.31843 | -77.29585 | 34874 ft | 427 kts | 15° |
| 2026-04-25 01:02 | 37.37477 | -77.27172 | 34873 ft | 427 kts | 15° |
| 2026-04-25 01:02 | 37.43058 | -77.24751 | 34871 ft | 424 kts | 15° |
| 2026-04-25 01:03 | 37.48646 | -77.22316 | 34870 ft | 426 kts | 15° |
| 2026-04-25 01:03 | 37.54245 | -77.19869 | 34870 ft | 427 kts | 15° |
| 2026-04-25 01:04 | 37.59837 | -77.17419 | 34868 ft | 425 kts | 15° |
| 2026-04-25 01:04 | 37.65447 | -77.14960 | 34869 ft | 426 kts | 15° |
| 2026-04-25 01:05 | 37.70928 | -77.12165 | 34868 ft | 427 kts | 21° |
| 2026-04-25 01:05 | 37.76197 | -77.08688 | 34869 ft | 430 kts | 24° |
| 2026-04-25 01:06 | 37.81427 | -77.05013 | 34869 ft | 431 kts | 25° |
| 2026-04-25 01:06 | 37.86664 | -77.01322 | 34869 ft | 431 kts | 24° |
| 2026-04-25 01:07 | 37.91885 | -76.97663 | 34872 ft | 429 kts | 24° |
| 2026-04-25 01:07 | 37.97124 | -76.94006 | 34875 ft | 429 kts | 24° |
| 2026-04-25 01:08 | 38.02315 | -76.90384 | 34869 ft | 428 kts | 24° |
| 2026-04-25 01:08 | 38.07515 | -76.86752 | 34868 ft | 428 kts | 24° |
| 2026-04-25 01:09 | 38.12732 | -76.83109 | 34869 ft | 428 kts | 24° |
| 2026-04-25 01:09 | 38.17939 | -76.79464 | 34869 ft | 426 kts | 23° |
| 2026-04-25 01:10 | 38.23125 | -76.75745 | 34870 ft | 431 kts | 26° |
| 2026-04-25 01:10 | 38.27969 | -76.71303 | 34872 ft | 434 kts | 33° |
| 2026-04-25 01:11 | 38.32620 | -76.66348 | 34871 ft | 435 kts | 35° |
| 2026-04-25 01:11 | 38.37186 | -76.61330 | 34874 ft | 434 kts | 35° |
| 2026-04-25 01:12 | 38.41752 | -76.56322 | 34874 ft | 435 kts | 34° |
| 2026-04-25 01:12 | 38.46326 | -76.51348 | 34873 ft | 433 kts | 34° |
| 2026-04-25 01:13 | 38.50930 | -76.46397 | 34878 ft | 434 kts | 34° |
| 2026-04-25 01:13 | 38.55528 | -76.41454 | 34872 ft | 432 kts | 33° |
| 2026-04-25 01:14 | 38.60128 | -76.36506 | 34875 ft | 432 kts | 33° |
| 2026-04-25 01:14 | 38.64706 | -76.31570 | 34875 ft | 433 kts | 34° |
| 2026-04-25 01:15 | 38.69308 | -76.26597 | 34874 ft | 431 kts | 34° |
| 2026-04-25 01:15 | 38.73870 | -76.21652 | 34873 ft | 432 kts | 34° |
| 2026-04-25 01:16 | 38.78435 | -76.16700 | 34875 ft | 432 kts | 34° |
| 2026-04-25 01:16 | 38.83024 | -76.11712 | 34874 ft | 430 kts | 34° |
| 2026-04-25 01:17 | 38.87585 | -76.06746 | 34872 ft | 431 kts | 34° |
| 2026-04-25 01:17 | 38.92130 | -76.01788 | 34869 ft | 431 kts | 33° |
| 2026-04-25 01:18 | 38.96693 | -75.96790 | 34868 ft | 429 kts | 33° |
| 2026-04-25 01:18 | 39.01126 | -75.91644 | 34873 ft | 430 kts | 36° |
| 2026-04-25 01:19 | 39.05506 | -75.86372 | 34872 ft | 434 kts | 36° |
| 2026-04-25 01:19 | 39.09899 | -75.81074 | 34872 ft | 431 kts | 36° |
| 2026-04-25 01:20 | 39.14272 | -75.75814 | 34873 ft | 430 kts | 36° |
| 2026-04-25 01:20 | 39.18655 | -75.70554 | 34876 ft | 432 kts | 35° |
| 2026-04-25 01:21 | 39.23014 | -75.65320 | 34881 ft | 429 kts | 35° |
| 2026-04-25 01:21 | 39.27365 | -75.60096 | 34879 ft | 432 kts | 35° |
| 2026-04-25 01:22 | 39.31742 | -75.54828 | 34883 ft | 428 kts | 35° |
| 2026-04-25 01:22 | 39.36085 | -75.49588 | 34888 ft | 427 kts | 35° |
| 2026-04-25 01:23 | 39.40415 | -75.44358 | 34890 ft | 426 kts | 34° |
| 2026-04-25 01:23 | 39.44765 | -75.39096 | 34897 ft | 427 kts | 34° |
| 2026-04-25 01:24 | 39.49079 | -75.33869 | 34892 ft | 427 kts | 35° |
| 2026-04-25 01:24 | 39.53399 | -75.28626 | 34897 ft | 428 kts | 35° |
| 2026-04-25 01:25 | 39.57702 | -75.23384 | 34897 ft | 423 kts | 35° |
| 2026-04-25 01:25 | 39.61995 | -75.18155 | 34897 ft | 426 kts | 35° |
| 2026-04-25 01:26 | 39.66305 | -75.12891 | 34906 ft | 424 kts | 34° |
| 2026-04-25 01:26 | 39.70615 | -75.07756 | 34902 ft | 421 kts | 32° |
| 2026-04-25 01:27 | 39.75055 | -75.02787 | 34905 ft | 420 kts | 31° |
| 2026-04-25 01:27 | 39.79491 | -74.97858 | 34910 ft | 418 kts | 31° |
| 2026-04-25 01:28 | 39.86125 | -74.90423 | 34912 ft | 421 kts | 31° |
| 2026-04-25 01:28 | 39.90531 | -74.85518 | 34914 ft | 418 kts | 29° |
| 2026-04-25 01:29 | 39.95165 | -74.81060 | 34918 ft | 408 kts | 25° |
| 2026-04-25 01:29 | 39.99855 | -74.76849 | 34921 ft | 414 kts | 25° |
| 2026-04-25 01:30 | 40.04437 | -74.72281 | 34925 ft | 419 kts | 32° |
| 2026-04-25 01:30 | 40.08591 | -74.66717 | 34923 ft | 431 kts | 37° |
| 2026-04-25 01:31 | 40.12535 | -74.60927 | 34926 ft | 428 kts | 38° |
| 2026-04-25 01:31 | 40.16465 | -74.55126 | 34926 ft | 428 kts | 38° |
| 2026-04-25 01:32 | 40.20472 | -74.49410 | 34925 ft | 424 kts | 33° |
| 2026-04-25 01:32 | 40.24836 | -74.44373 | 34924 ft | 418 kts | 29° |
| 2026-04-25 01:33 | 40.29328 | -74.39643 | 34927 ft | 415 kts | 27° |
| 2026-04-25 01:33 | 40.33832 | -74.34929 | 34929 ft | 415 kts | 28° |
| 2026-04-25 01:34 | 40.38335 | -74.30158 | 34942 ft | 416 kts | 28° |
| 2026-04-25 01:34 | 40.42765 | -74.25413 | 34947 ft | 412 kts | 28° |
| 2026-04-25 01:35 | 40.47222 | -74.20632 | 34942 ft | 413 kts | 29° |
| 2026-04-25 01:35 | 40.51657 | -74.15852 | 34947 ft | 415 kts | 28° |
| 2026-04-25 01:36 | 40.56060 | -74.11102 | 34943 ft | 410 kts | 28° |
| 2026-04-25 01:36 | 40.60479 | -74.06325 | 34948 ft | 411 kts | 28° |
| 2026-04-25 01:37 | 40.64901 | -74.01542 | 34951 ft | 412 kts | 28° |
| 2026-04-25 01:37 | 40.69299 | -73.96768 | 34946 ft | 410 kts | 28° |
| 2026-04-25 01:38 | 40.73734 | -73.91945 | 34949 ft | 411 kts | 28° |
| 2026-04-25 01:38 | 40.78112 | -73.87171 | 34950 ft | 408 kts | 27° |
| 2026-04-25 01:39 | 40.82501 | -73.82380 | 34941 ft | 411 kts | 28° |
| 2026-04-25 01:39 | 40.86552 | -73.77013 | 34953 ft | 426 kts | 38° |
| 2026-04-25 01:40 | 40.89998 | -73.70506 | 34956 ft | 440 kts | 45° |
| 2026-04-25 01:40 | 40.93154 | -73.63580 | 34951 ft | 438 kts | 46° |
| 2026-04-25 01:41 | 40.96235 | -73.56629 | 34954 ft | 440 kts | 46° |
| 2026-04-25 01:41 | 40.99522 | -73.50041 | 34964 ft | 426 kts | 40° |
| 2026-04-25 01:42 | 41.03139 | -73.43786 | 34959 ft | 425 kts | 39° |
| 2026-04-25 01:42 | 41.06696 | -73.37620 | 34959 ft | 425 kts | 39° |
| 2026-04-25 01:43 | 41.10239 | -73.31319 | 34958 ft | 430 kts | 41° |
| 2026-04-25 01:43 | 41.13750 | -73.24953 | 34820 ft | 427 kts | 41° |
| 2026-04-25 01:44 | 41.15471 | -73.21795 | 34963 ft | 425 kts | 41° |
| 2026-04-25 01:44 | 41.17220 | -73.18592 | 34964 ft | 430 kts | 41° |
| 2026-04-25 01:44 | 41.20704 | -73.12191 | 34958 ft | 429 kts | 41° |
| 2026-04-25 01:45 | 41.24184 | -73.05778 | 34955 ft | 430 kts | 41° |
| 2026-04-25 01:45 | 41.27660 | -72.99365 | 34971 ft | 433 kts | 41° |
| 2026-04-25 01:46 | 41.31149 | -72.92913 | 34975 ft | 433 kts | 42° |
| 2026-04-25 01:46 | 41.34638 | -72.86432 | 34972 ft | 430 kts | 42° |
| 2026-04-25 01:47 | 41.38085 | -72.80015 | 34970 ft | 428 kts | 42° |
| 2026-04-25 01:47 | 41.41563 | -72.73542 | 34977 ft | 429 kts | 41° |
| 2026-04-25 01:48 | 41.45010 | -72.67117 | 34973 ft | 432 kts | 42° |
| 2026-04-25 01:48 | 41.48494 | -72.60605 | 34968 ft | 432 kts | 42° |
| 2026-04-25 01:49 | 41.51993 | -72.54064 | 34967 ft | 432 kts | 42° |
| 2026-04-25 01:49 | 41.55433 | -72.47586 | 34974 ft | 431 kts | 43° |
| 2026-04-25 01:50 | 41.58899 | -72.41071 | 34972 ft | 432 kts | 43° |
| 2026-04-25 01:50 | 41.62368 | -72.34525 | 34973 ft | 431 kts | 44° |
| 2026-04-25 01:51 | 41.65831 | -72.27993 | 34976 ft | 433 kts | 44° |
| 2026-04-25 01:51 | 41.69310 | -72.21405 | 34974 ft | 437 kts | 44° |
| 2026-04-25 01:52 | 41.72802 | -72.14774 | 34974 ft | 433 kts | 44° |
| 2026-04-25 01:52 | 41.76259 | -72.08200 | 34977 ft | 438 kts | 45° |
| 2026-04-25 01:53 | 41.79731 | -72.01576 | 34980 ft | 434 kts | 45° |
| 2026-04-25 01:53 | 41.83201 | -71.94949 | 34972 ft | 437 kts | 45° |
| 2026-04-25 01:54 | 41.86684 | -71.88287 | 34976 ft | 437 kts | 45° |
| 2026-04-25 01:54 | 41.90126 | -71.81670 | 34976 ft | 436 kts | 45° |
| 2026-04-25 01:55 | 41.93628 | -71.74948 | 34983 ft | 438 kts | 45° |
| 2026-04-25 01:55 | 41.97081 | -71.68283 | 34988 ft | 435 kts | 45° |
| 2026-04-25 01:56 | 42.00521 | -71.61639 | 34986 ft | 439 kts | 46° |
| 2026-04-25 01:56 | 42.03988 | -71.54926 | 34995 ft | 435 kts | 45° |
| 2026-04-25 01:57 | 42.07443 | -71.48226 | 34683 ft | 438 kts | 45° |
| 2026-04-25 01:57 | 42.09174 | -71.44856 | 34447 ft | 435 kts | 45° |
| 2026-04-25 01:57 | 42.10892 | -71.41506 | 34208 ft | 435 kts | 45° |
| 2026-04-25 01:58 | 42.12590 | -71.38201 | 33978 ft | 436 kts | 45° |
| 2026-04-25 01:58 | 42.14331 | -71.34811 | 33749 ft | 437 kts | 45° |
| 2026-04-25 01:58 | 42.16040 | -71.31479 | 33370 ft | 437 kts | 45° |
| 2026-04-25 01:58 | 42.17756 | -71.28123 | 32749 ft | 437 kts | 45° |
| 2026-04-25 01:59 | 42.19474 | -71.24762 | 32161 ft | 435 kts | 45° |
| 2026-04-25 01:59 | 42.21170 | -71.21433 | 31624 ft | 432 kts | 45° |
| 2026-04-25 01:59 | 42.22850 | -71.18130 | 31072 ft | 429 kts | 45° |
| 2026-04-25 01:59 | 42.24547 | -71.14795 | 30508 ft | 427 kts | 45° |
| 2026-04-25 02:00 | 42.26202 | -71.11538 | 29945 ft | 425 kts | 45° |
| 2026-04-25 02:00 | 42.27856 | -71.08283 | 29372 ft | 422 kts | 45° |
| 2026-04-25 02:00 | 42.29518 | -71.05009 | 28808 ft | 419 kts | 45° |
| 2026-04-25 02:00 | 42.31144 | -71.01801 | 28253 ft | 416 kts | 45° |
| 2026-04-25 02:01 | 42.32766 | -70.98598 | 27694 ft | 413 kts | 45° |
| 2026-04-25 02:01 | 42.34365 | -70.95438 | 27145 ft | 410 kts | 45° |
| 2026-04-25 02:01 | 42.35976 | -70.92251 | 26589 ft | 407 kts | 45° |
| 2026-04-25 02:01 | 42.37555 | -70.89123 | 26036 ft | 405 kts | 45° |
| 2026-04-25 02:02 | 42.39140 | -70.85984 | 25487 ft | 402 kts | 45° |
| 2026-04-25 02:02 | 42.40696 | -70.82913 | 24947 ft | 398 kts | 44° |
| 2026-04-25 02:02 | 42.42372 | -70.79985 | 24416 ft | 387 kts | 38° |
| 2026-04-25 02:02 | 42.44274 | -70.77603 | 24043 ft | 365 kts | 26° |
| 2026-04-25 02:03 | 42.46365 | -70.75875 | 24015 ft | 343 kts | 18° |
| 2026-04-25 02:03 | 42.48519 | -70.74515 | 24019 ft | 341 kts | 14° |
| 2026-04-25 02:03 | 42.50697 | -70.73297 | 24024 ft | 342 kts | 13° |
| 2026-04-25 02:03 | 42.52910 | -70.72106 | 24015 ft | 343 kts | 13° |
| 2026-04-25 02:04 | 42.55145 | -70.70912 | 24026 ft | 343 kts | 13° |
| 2026-04-25 02:04 | 42.57328 | -70.69736 | 24020 ft | 343 kts | 13° |
| 2026-04-25 02:04 | 42.59541 | -70.68533 | 24016 ft | 343 kts | 13° |
| 2026-04-25 02:04 | 42.61775 | -70.67314 | 23674 ft | 343 kts | 14° |
| 2026-04-25 02:05 | 42.63948 | -70.66118 | 23227 ft | 339 kts | 13° |
| 2026-04-25 02:05 | 42.66133 | -70.64912 | 22751 ft | 336 kts | 14° |
| 2026-04-25 02:05 | 42.68271 | -70.63719 | 22288 ft | 333 kts | 14° |
| 2026-04-25 02:05 | 42.70401 | -70.62442 | 21818 ft | 332 kts | 16° |
| 2026-04-25 02:06 | 42.72474 | -70.61132 | 21347 ft | 329 kts | 17° |
| 2026-04-25 02:06 | 42.74531 | -70.59812 | 20889 ft | 326 kts | 17° |
| 2026-04-25 02:06 | 42.76536 | -70.58527 | 20422 ft | 322 kts | 17° |
| 2026-04-25 02:06 | 42.78567 | -70.57232 | 19965 ft | 319 kts | 17° |
| 2026-04-25 02:07 | 42.80559 | -70.55968 | 19512 ft | 315 kts | 17° |
| 2026-04-25 02:07 | 42.82537 | -70.54717 | 19062 ft | 312 kts | 17° |
| 2026-04-25 02:07 | 42.84472 | -70.53494 | 18622 ft | 308 kts | 17° |
| 2026-04-25 02:07 | 42.86402 | -70.52275 | 18176 ft | 305 kts | 17° |
| 2026-04-25 02:08 | 42.88330 | -70.51058 | 17708 ft | 303 kts | 18° |
| 2026-04-25 02:08 | 42.90233 | -70.49858 | 17241 ft | 300 kts | 18° |
| 2026-04-25 02:08 | 42.92109 | -70.48672 | 16802 ft | 297 kts | 18° |
| 2026-04-25 02:08 | 42.93950 | -70.47507 | 16373 ft | 294 kts | 18° |
| 2026-04-25 02:09 | 42.95800 | -70.46336 | 15944 ft | 291 kts | 18° |
| 2026-04-25 02:09 | 42.97637 | -70.45173 | 15520 ft | 288 kts | 19° |
| 2026-04-25 02:09 | 42.99439 | -70.44032 | 15109 ft | 291 kts | 19° |
| 2026-04-25 02:09 | 43.01321 | -70.42847 | 14675 ft | 303 kts | 19° |
| 2026-04-25 02:10 | 43.03202 | -70.41534 | 14224 ft | 306 kts | 25° |
| 2026-04-25 02:10 | 43.05022 | -70.40004 | 13769 ft | 304 kts | 27° |
| 2026-04-25 02:10 | 43.06770 | -70.38427 | 13316 ft | 300 kts | 28° |
| 2026-04-25 02:10 | 43.08496 | -70.36863 | 12888 ft | 297 kts | 28° |
| 2026-04-25 02:11 | 43.10209 | -70.35336 | 12456 ft | 293 kts | 28° |
| 2026-04-25 02:11 | 43.11892 | -70.33858 | 12029 ft | 291 kts | 28° |
| 2026-04-25 02:11 | 43.13597 | -70.32375 | 11596 ft | 288 kts | 28° |
| 2026-04-25 02:11 | 43.15269 | -70.30924 | 11176 ft | 285 kts | 29° |
| 2026-04-25 02:12 | 43.16942 | -70.29468 | 10976 ft | 285 kts | 29° |
| 2026-04-25 02:12 | 43.18654 | -70.27972 | 10962 ft | 293 kts | 30° |
| 2026-04-25 02:12 | 43.20363 | -70.26469 | 10962 ft | 291 kts | 30° |
| 2026-04-25 02:12 | 43.22107 | -70.25090 | 10957 ft | 290 kts | 22° |
| 2026-04-25 02:13 | 43.24036 | -70.24410 | 10966 ft | 288 kts | 1° |
| 2026-04-25 02:13 | 43.26005 | -70.24830 | 10966 ft | 285 kts | 341° |
| 2026-04-25 02:13 | 43.27738 | -70.26050 | 10964 ft | 282 kts | 328° |
| 2026-04-25 02:13 | 43.29275 | -70.27698 | 10970 ft | 273 kts | 322° |
| 2026-04-25 02:14 | 43.30647 | -70.29432 | 10967 ft | 265 kts | 320° |
| 2026-04-25 02:14 | 43.31963 | -70.31156 | 10972 ft | 256 kts | 320° |
| 2026-04-25 02:14 | 43.33239 | -70.32806 | 10790 ft | 250 kts | 321° |
| 2026-04-25 02:14 | 43.34504 | -70.34410 | 10352 ft | 252 kts | 322° |
| 2026-04-25 02:15 | 43.35784 | -70.36050 | 9905 ft | 255 kts | 320° |
| 2026-04-25 02:15 | 43.37026 | -70.37764 | 9537 ft | 254 kts | 318° |
| 2026-04-25 02:15 | 43.38250 | -70.39510 | 9176 ft | 253 kts | 317° |
| 2026-04-25 02:15 | 43.39473 | -70.41251 | 8814 ft | 251 kts | 317° |
| 2026-04-25 02:16 | 43.40670 | -70.42940 | 8431 ft | 249 kts | 317° |
| 2026-04-25 02:16 | 43.41881 | -70.44639 | 8056 ft | 247 kts | 317° |
| 2026-04-25 02:16 | 43.43082 | -70.46323 | 7679 ft | 246 kts | 317° |
| 2026-04-25 02:16 | 43.44264 | -70.47982 | 7341 ft | 244 kts | 317° |
| 2026-04-25 02:17 | 43.45459 | -70.49661 | 6975 ft | 245 kts | 316° |
| 2026-04-25 02:17 | 43.46634 | -70.51316 | 6586 ft | 244 kts | 316° |
| 2026-04-25 02:17 | 43.47814 | -70.52979 | 6253 ft | 243 kts | 316° |
| 2026-04-25 02:17 | 43.48988 | -70.54636 | 5856 ft | 243 kts | 316° |
| 2026-04-25 02:18 | 43.50165 | -70.56297 | 5467 ft | 244 kts | 317° |
| 2026-04-25 02:18 | 43.51353 | -70.57973 | 5113 ft | 244 kts | 317° |
| 2026-04-25 02:18 | 43.52536 | -70.59644 | 4783 ft | 242 kts | 318° |
| 2026-04-25 02:18 | 43.53702 | -70.61295 | 4441 ft | 241 kts | 317° |
| 2026-04-25 02:19 | 43.54896 | -70.62885 | 4088 ft | 240 kts | 324° |
| 2026-04-25 02:19 | 43.56335 | -70.63933 | 3877 ft | 229 kts | 351° |
| 2026-04-25 02:19 | 43.57881 | -70.63894 | 3759 ft | 216 kts | 14° |
| 2026-04-25 02:19 | 43.59308 | -70.63419 | 3656 ft | 207 kts | 14° |
| 2026-04-25 02:20 | 43.60683 | -70.63010 | 3535 ft | 199 kts | 13° |
| 2026-04-25 02:20 | 43.62016 | -70.62631 | 3355 ft | 195 kts | 17° |
| 2026-04-25 02:20 | 43.63233 | -70.61848 | 3067 ft | 195 kts | 43° |
| 2026-04-25 02:20 | 43.63960 | -70.60310 | 2977 ft | 191 kts | 66° |
| 2026-04-25 02:21 | 43.64457 | -70.58596 | 2951 ft | 185 kts | 66° |
| 2026-04-25 02:21 | 43.64952 | -70.57014 | 2962 ft | 177 kts | 64° |
| 2026-04-25 02:21 | 43.65450 | -70.55490 | 2961 ft | 175 kts | 64° |
| 2026-04-25 02:21 | 43.65837 | -70.53895 | 2967 ft | 174 kts | 77° |
| 2026-04-25 02:22 | 43.65868 | -70.52264 | 2846 ft | 171 kts | 89° |
| 2026-04-25 02:22 | 43.65772 | -70.50626 | 2570 ft | 171 kts | 90° |
| 2026-04-25 02:22 | 43.65677 | -70.48986 | 2265 ft | 173 kts | 90° |
| 2026-04-25 02:22 | 43.65572 | -70.47345 | 2000 ft | 172 kts | 91° |
| 2026-04-25 02:23 | 43.65459 | -70.45711 | 1769 ft | 168 kts | 91° |
| 2026-04-25 02:23 | 43.65360 | -70.44216 | 1753 ft | 148 kts | 91° |
| 2026-04-25 02:23 | 43.65272 | -70.42815 | 1677 ft | 143 kts | 90° |
| 2026-04-25 02:23 | 43.65178 | -70.41442 | 1400 ft | 141 kts | 91° |
| 2026-04-25 02:24 | 43.65089 | -70.40124 | 1200 ft | 137 kts | 92° |
| 2026-04-25 02:24 | 43.65002 | -70.38816 | 1062 ft | 139 kts | 93° |
| 2026-04-25 02:24 | 43.64901 | -70.37474 | 842 ft | 142 kts | 92° |
| 2026-04-25 02:24 | 43.64817 | -70.36108 | 613 ft | 144 kts | 93° |
| 2026-04-25 02:25 | 43.64729 | -70.34766 | 435 ft | 140 kts | 94° |
| 2026-04-25 02:25 | 43.64641 | -70.33426 | 218 ft | 140 kts | 94° |
| 2026-04-25 02:25 | 43.64550 | -70.32086 | 67 ft | 131 kts | 94° |
| 2026-04-25 02:25 | 43.64493 | -70.31216 | 64 ft | 53 kts | 95° |
| 2026-04-25 02:26 | 43.64465 | -70.30813 | 56 ft | 27 kts | 96° |
| 2026-04-25 02:26 | 43.64474 | -70.30702 | 51 ft | 5 kts | 36° |
| 2026-04-25 02:26 | 43.64515 | -70.30695 | 51 ft | 6 kts | 359° |
| 2026-04-25 02:26 | 43.64558 | -70.30700 | 51 ft | 5 kts | 339° |
| 2026-04-25 02:27 | 43.64571 | -70.30746 | 53 ft | 7 kts | 278° |
| 2026-04-25 02:27 | 43.64577 | -70.30811 | 56 ft | 7 kts | 276° |
| 2026-04-25 02:27 | 43.64584 | -70.30907 | 58 ft | 11 kts | 275° |
| 2026-04-25 02:27 | 43.64591 | -70.31021 | 60 ft | 14 kts | 275° |
| 2026-04-25 02:28 | 43.64600 | -70.31148 | 63 ft | 12 kts | 275° |
| 2026-04-25 02:28 | 43.64611 | -70.31248 | 65 ft | 9 kts | 295° |
| 2026-04-25 02:28 | 43.64652 | -70.31311 | 66 ft | 8 kts | 320° |
| 2026-04-25 02:28 | 43.64692 | -70.31356 | 67 ft | 5 kts | 324° |
| 2026-04-25 02:29 | 43.64718 | -70.31336 | 68 ft | 4 kts | 68° |
| 2026-04-25 02:29 | 43.64730 | -70.31295 | 68 ft | 2 kts | 64° |
| 2026-04-25 02:29 | 43.64731 | -70.31293 | 68 ft | 0 kts | 64° |